createdAt,value
2018-12-04T00:06:47.259Z,22.3
2018-12-04T00:16:46.452Z,22.1
2018-12-04T00:26:45.655Z,22.3
2018-12-04T00:36:44.864Z,22.1
2018-12-04T00:46:44.063Z,21.9
2018-12-04T00:56:43.271Z,22.2
2018-12-04T01:06:42.478Z,22.3
2018-12-04T01:16:41.678Z,22.1
2018-12-04T01:26:40.877Z,21.9
2018-12-04T01:36:40.080Z,21.8
2018-12-04T01:46:39.283Z,21.9
2018-12-04T01:56:38.491Z,21.8
2018-12-04T02:06:37.697Z,22.3
2018-12-04T02:16:36.897Z,22.2
2018-12-04T02:26:36.097Z,22
2018-12-04T02:36:35.304Z,21.9
2018-12-04T02:46:34.500Z,22.1
2018-12-04T03:06:32.907Z,21.9
2018-12-04T03:16:32.113Z,21.8
2018-12-04T03:26:31.316Z,21.7
2018-12-04T03:36:30.517Z,22
2018-12-04T03:46:29.719Z,21.9
2018-12-04T03:56:28.922Z,21.8
2018-12-04T04:06:28.132Z,21.8
2018-12-04T04:16:27.331Z,21.8
2018-12-04T04:26:26.542Z,21.7
2018-12-04T04:36:25.741Z,21.7
2018-12-04T04:46:24.965Z,22
2018-12-04T04:56:24.164Z,21.8
2018-12-04T05:06:23.375Z,21.7
2018-12-04T05:16:22.595Z,21.7
2018-12-04T05:26:21.791Z,21.9
2018-12-04T05:36:21.004Z,21.8
2018-12-04T05:46:20.224Z,21.8
2018-12-04T05:56:19.444Z,21.6
2018-12-04T06:06:18.635Z,21.7
2018-12-04T06:16:17.838Z,22
2018-12-04T06:26:17.056Z,22.2
2018-12-04T06:36:16.248Z,22.3
2018-12-04T06:46:15.463Z,22.4
2018-12-04T06:56:14.658Z,22.4
2018-12-04T07:06:13.862Z,22.6
2018-12-04T07:16:13.067Z,22.4
2018-12-04T07:26:12.270Z,22.3
2018-12-04T07:36:11.467Z,22.1
2018-12-04T07:46:10.677Z,22
2018-12-04T07:56:09.879Z,21.9
2018-12-04T08:06:09.085Z,21.9
2018-12-04T08:16:08.280Z,21.9
2018-12-04T08:26:07.479Z,22.1
2018-12-04T08:36:06.688Z,22.3
2018-12-04T08:46:05.888Z,22.4
2018-12-04T08:56:05.091Z,22.6
2018-12-04T09:06:04.291Z,22.5
2018-12-04T09:16:03.496Z,22.3
2018-12-04T09:26:02.701Z,22.1
2018-12-04T09:36:01.902Z,22.1
2018-12-04T09:46:01.102Z,22
2018-12-04T09:56:00.308Z,21.9
2018-12-04T10:05:59.508Z,21.8
2018-12-04T10:15:58.703Z,21.8
2018-12-04T10:25:57.902Z,22.1
2018-12-04T10:35:57.107Z,22.4
2018-12-04T10:45:56.305Z,22.6
2018-12-04T10:55:55.520Z,22.7
2018-12-04T11:05:54.724Z,22.6
2018-12-04T11:15:53.915Z,22.3
2018-12-04T11:25:53.115Z,22.3
2018-12-04T11:35:52.329Z,22.1
2018-12-04T11:45:51.527Z,22
2018-12-04T11:55:50.726Z,22
2018-12-04T12:05:49.929Z,21.9
2018-12-04T12:15:49.129Z,21.9
2018-12-04T12:25:48.324Z,21.8
2018-12-04T12:35:47.533Z,21.8
2018-12-04T12:45:46.736Z,21.8
2018-12-04T12:55:45.947Z,21.7
2018-12-04T13:05:45.131Z,21.7
2018-12-04T13:15:44.336Z,21.7
2018-12-04T13:25:43.534Z,21.7
2018-12-04T13:35:42.750Z,21.7
2018-12-04T13:45:41.953Z,21.7
2018-12-04T13:55:41.558Z,21.7
2018-12-04T14:05:40.371Z,21.6
2018-12-04T14:15:39.568Z,21.6
2018-12-04T14:25:38.775Z,21.6
2018-12-04T14:35:37.985Z,21.5
2018-12-04T14:45:37.197Z,21.4
2018-12-04T14:55:36.386Z,21.4
2018-12-04T15:05:35.626Z,21.4
2018-12-04T15:15:34.805Z,21.8
2018-12-04T15:25:34.021Z,21.9
2018-12-04T15:35:33.200Z,22.1
2018-12-04T15:45:32.449Z,22.3
2018-12-04T15:55:31.605Z,22.3
2018-12-04T16:05:30.808Z,22.3
2018-12-04T16:15:30.009Z,22.2
2018-12-04T16:25:29.223Z,22.3
2018-12-04T16:35:28.433Z,22.3
2018-12-04T16:45:27.646Z,22.4
2018-12-04T16:55:26.849Z,22.6
2018-12-04T17:05:26.058Z,22.4
2018-12-04T17:15:25.265Z,22.6
2018-12-04T17:25:24.470Z,22.6
2018-12-04T17:35:23.675Z,22.8
2018-12-04T17:45:22.881Z,22.5
2018-12-04T17:55:22.094Z,22.4
2018-12-04T18:05:21.307Z,22.3
2018-12-04T18:15:20.510Z,22.2
2018-12-04T18:25:19.721Z,22.1
2018-12-04T18:35:18.934Z,22.2
2018-12-04T18:45:18.150Z,22.3
2018-12-04T18:55:17.367Z,22.2
2018-12-04T19:05:16.574Z,22.1
2018-12-04T19:15:15.785Z,22
2018-12-04T19:25:14.994Z,21.9
2018-12-04T19:35:14.207Z,21.9
2018-12-04T19:45:13.421Z,21.8
2018-12-04T19:55:12.632Z,21.8
2018-12-04T20:05:11.840Z,21.8
2018-12-04T20:15:11.059Z,21.8
2018-12-04T20:25:10.279Z,21.7
2018-12-04T20:35:09.476Z,22.1
2018-12-04T20:45:08.681Z,22.3
2018-12-04T20:55:08.848Z,22.2
2018-12-04T21:05:07.115Z,22.1
2018-12-04T21:15:06.317Z,22.1
2018-12-04T21:25:05.518Z,22.3
2018-12-04T21:35:04.726Z,22.4
2018-12-04T21:45:03.930Z,22.3
2018-12-04T21:55:03.136Z,22.2
2018-12-04T22:05:02.343Z,22.1
2018-12-04T22:15:01.558Z,22
2018-12-04T22:25:00.830Z,22.1
2018-12-04T22:34:59.964Z,22.2
2018-12-04T22:44:59.169Z,22.1
2018-12-04T22:54:58.371Z,22
2018-12-04T23:04:57.579Z,21.9
2018-12-04T23:14:56.795Z,21.9
2018-12-04T23:24:56.001Z,21.9
2018-12-04T23:34:55.200Z,21.9
2018-12-04T23:44:54.403Z,21.8
2018-12-04T23:54:53.611Z,21.8
